Terminal Aerodrome Forecast
Issued by NWS

Home | Current Version | Previous Version | Text Only | Print | Product List | Glossary On
Versions: 1 2 3 4 5 6 7 8 9 10 11 12 13
000
FTUS46 KMTR 192339
TAFOAK
TAF
KOAK 192339Z 2000/2106 25015KT P6SM FEW015 FEW250
     FM200300 27008KT P6SM FEW015 FEW250
     FM201100 27007KT P6SM SCT015
      TEMPO 2013/2017 BKN014
     FM201700 27008KT P6SM FEW018
     FM202100 28015KT P6SM FEW020
     FM210400 27010KT P6SM FEW015 SCT150=

USA.gov is the U.S. government's official web portal to all federal, state and local government web resources and services.